Time;durP1;ratioP1;P1;durP2;ratioP2;P2;SDS_P1;SDS_P2;PMS_P1;PMS_P2;Temp;Humidity;BMP_temperature;BMP_pressure;BME280_temperature;BME280_humidity;BME280_pressure;Samples;Min_cycle;Max_cycle;Signal;HPM_P1;HPM_P2
2022/12/14 00:03:28;;;;;;;2.67;1.35;;;;;;;-4.42;84.53;99415.56;10593572;28;20039;-85
2022/12/14 00:08:30;;;;;;;2.13;1.38;;;;;;;-4.42;84.65;99413.72;10596274;28;20501;-85
2022/12/14 00:13:32;;;;;;;2.05;1.42;;;;;;;-4.42;84.25;99411.03;10589872;27;20051;-86
2022/12/14 00:18:34;;;;;;;4.10;1.92;;;;;;;-4.44;84.93;99407.75;10599356;27;20062;-84
2022/12/14 00:23:37;;;;;;;4.72;1.85;;;;;;;-4.45;85.06;99421.38;10609369;27;20035;-84
2022/12/14 00:28:40;;;;;;;1.60;1.27;;;;;;;-4.46;85.31;99406.34;10600863;28;20043;-86
2022/12/14 00:33:43;;;;;;;2.30;1.33;;;;;;;-4.50;85.56;99421.19;10616519;27;20090;-86
2022/12/14 00:38:45;;;;;;;2.20;1.33;;;;;;;-4.51;86.00;99423.03;10583148;27;20065;-86
2022/12/14 00:43:47;;;;;;;3.25;1.27;;;;;;;-4.56;86.06;99420.16;10616402;27;20043;-85
2022/12/14 00:48:49;;;;;;;3.10;1.65;;;;;;;-4.58;86.22;99423.06;10640832;27;20040;-86
2022/12/14 00:53:51;;;;;;;3.13;1.52;;;;;;;-4.58;86.39;99436.44;10620900;27;20047;-86
2022/12/14 00:58:54;;;;;;;2.83;1.63;;;;;;;-4.56;86.77;99433.56;10601431;27;20075;-85
2022/12/14 01:04:15;;;;;;;2.67;1.40;;;;;;;-4.57;87.20;99447.97;10622879;27;20042;-85
2022/12/14 01:09:19;;;;;;;2.35;1.60;;;;;;;-4.55;87.07;99452.06;10629046;27;20043;-85
2022/12/14 01:14:22;;;;;;;2.92;1.60;;;;;;;-4.53;87.56;99443.00;10628693;27;20047;-84
2022/12/14 01:19:24;;;;;;;2.80;1.60;;;;;;;-4.58;87.21;99436.44;10608597;27;20051;-85
2022/12/14 01:24:26;;;;;;;2.80;1.75;;;;;;;-4.62;87.77;99440.59;10582706;28;20048;-85
2022/12/14 01:29:28;;;;;;;4.18;1.55;;;;;;;-4.63;88.13;99444.28;10582222;28;20036;-84
2022/12/14 01:34:30;;;;;;;3.13;1.63;;;;;;;-4.61;88.04;99439.56;10585263;27;20072;-83
2022/12/14 01:39:32;;;;;;;2.03;1.48;;;;;;;-4.60;87.53;99437.69;10580740;27;20046;-83
2022/12/14 01:44:34;;;;;;;1.17;1.08;;;;;;;-4.63;87.81;99427.41;10597326;27;20036;-85
2022/12/14 01:49:48;;;;;;;1.52;1.08;;;;;;;-4.65;88.34;99432.97;10615625;27;20489;-84
2022/12/14 01:55:03;;;;;;;2.38;1.42;;;;;;;-4.65;88.65;99424.97;10606258;28;20035;-84
2022/12/14 02:00:08;;;;;;;2.40;1.23;;;;;;;-4.64;88.89;99418.56;10620691;27;20051;-84
2022/12/14 02:05:11;;;;;;;2.88;1.50;;;;;;;-4.65;89.79;99435.66;10611900;28;20036;-83
2022/12/14 02:10:17;;;;;;;1.75;1.30;;;;;;;-4.64;89.85;99431.94;10593086;27;20028;-85
2022/12/14 02:15:20;;;;;;;2.33;1.58;;;;;;;-4.69;90.94;99442.44;10556031;28;20517;-84
2022/12/14 02:20:25;;;;;;;1.63;1.48;;;;;;;-4.74;91.45;99434.25;10597652;27;20032;-84
2022/12/14 02:25:39;;;;;;;2.10;1.52;;;;;;;-4.74;91.58;99439.59;10573542;27;20060;-83
2022/12/14 02:30:42;;;;;;;2.05;1.42;;;;;;;-4.77;91.64;99452.56;10602028;28;20055;-83
2022/12/14 02:35:52;;;;;;;1.23;0.90;;;;;;;-4.92;92.02;99461.66;10587679;28;20062;-85
2022/12/14 02:41:00;;;;;;;1.42;1.00;;;;;;;-5.09;92.51;99459.66;10580155;28;20039;-86
2022/12/14 02:46:19;;;;;;;1.00;0.90;;;;;;;-5.23;91.88;99448.16;10586747;28;20044;-85
2022/12/14 02:51:55;;;;;;;1.60;1.00;;;;;;;-5.37;92.17;99452.72;10565107;28;20035;-83
2022/12/14 02:57:12;;;;;;;2.08;1.40;;;;;;;-5.45;91.76;99447.56;10569043;28;20062;-84
2022/12/14 03:02:15;;;;;;;1.97;1.57;;;;;;;-5.50;91.63;99444.69;10544726;28;20042;-85
2022/12/14 03:07:32;;;;;;;2.17;1.50;;;;;;;-5.61;91.66;99447.97;10574415;28;20048;-84
2022/12/14 03:12:36;;;;;;;1.98;1.65;;;;;;;-5.79;90.30;99448.59;10566712;28;20036;-85
2022/12/14 03:17:39;;;;;;;2.05;1.67;;;;;;;-5.90;88.60;99457.22;10583828;28;20056;-85
2022/12/14 03:22:47;;;;;;;2.33;1.90;;;;;;;-6.02;87.59;99453.53;10587883;28;20059;-85
2022/12/14 03:27:54;;;;;;;2.97;1.93;;;;;;;-6.12;87.52;99457.41;10604132;27;20050;-83
2022/12/14 03:33:03;;;;;;;4.25;2.30;;;;;;;-6.17;87.14;99467.88;10590739;27;20489;-84
2022/12/14 03:38:20;;;;;;;3.95;1.85;;;;;;;-6.33;86.61;99467.41;10581375;28;20048;-83
2022/12/14 03:43:26;;;;;;;3.42;2.20;;;;;;;-6.43;86.87;99462.44;10602466;27;20040;-85
2022/12/14 03:48:35;;;;;;;3.22;2.13;;;;;;;-6.52;86.42;99463.66;10599208;28;20063;-84
2022/12/14 03:53:44;;;;;;;2.30;1.60;;;;;;;-6.61;86.21;99468.34;10611777;27;20070;-83
2022/12/14 03:59:24;;;;;;;1.67;1.13;;;;;;;-6.64;86.53;99460.72;10625625;27;20040;-83
2022/12/14 04:04:35;;;;;;;2.58;1.50;;;;;;;-6.70;86.70;99462.38;10485987;28;20526;-84
2022/12/14 04:10:02;;;;;;;1.23;0.95;;;;;;;-6.80;86.64;99471.75;10558027;28;20046;-84
2022/12/14 04:20:42;;;;;;;2.28;1.05;;;;;;;-6.98;86.78;99480.25;10616079;27;20417;-82
2022/12/14 04:31:09;;;;;;;1.02;0.93;;;;;;;-7.21;87.00;99480.53;10609881;27;20562;-82
2022/12/14 04:36:14;;;;;;;1.58;1.13;;;;;;;-7.33;87.13;99464.25;10599040;27;20141;-81
2022/12/14 04:41:20;;;;;;;0.95;0.77;;;;;;;-7.41;87.41;99474.25;10583420;27;20056;-81
2022/12/14 04:46:26;;;;;;;2.22;1.00;;;;;;;-7.47;87.43;99478.50;10612228;27;20066;-81
2022/12/14 04:51:37;;;;;;;1.70;1.15;;;;;;;-7.53;87.35;99475.78;10580015;27;20044;-82
2022/12/14 04:56:46;;;;;;;2.28;1.42;;;;;;;-7.66;88.09;99487.16;10559184;28;20414;-81
2022/12/14 05:02:19;;;;;;;1.88;0.90;;;;;;;-7.75;87.92;99497.13;10566487;28;20047;-82
2022/12/14 05:07:34;;;;;;;1.52;0.90;;;;;;;-7.79;87.92;99503.84;10568430;27;20039;-81
2022/12/14 05:12:43;;;;;;;0.80;0.80;;;;;;;-7.80;89.02;99501.38;10591313;27;20028;-81
2022/12/14 05:17:46;;;;;;;1.42;1.33;;;;;;;-7.78;88.60;99494.03;10596953;27;20059;-81
2022/12/14 05:22:48;;;;;;;1.42;1.23;;;;;;;-7.75;88.98;99498.97;10616437;27;20051;-81
2022/12/14 05:27:51;;;;;;;2.30;1.23;;;;;;;-7.72;89.37;99509.22;10610835;27;20066;-81
2022/12/14 05:32:53;;;;;;;2.20;0.98;;;;;;;-7.70;89.41;99497.38;10572684;28;20054;-79
2022/12/14 05:37:56;;;;;;;3.45;1.17;;;;;;;-7.69;89.58;99507.00;10607299;28;20048;-79
2022/12/14 05:43:06;;;;;;;1.27;1.17;;;;;;;-7.66;89.59;99519.94;10607745;27;20051;-80
2022/12/14 05:48:09;;;;;;;1.63;0.95;;;;;;;-7.61;89.69;99517.53;10592902;27;20036;-80
2022/12/14 05:53:11;;;;;;;3.33;1.77;;;;;;;-7.57;90.14;99533.97;10611390;28;20513;-79
2022/12/14 05:58:14;;;;;;;2.67;1.55;;;;;;;-7.51;90.06;99529.69;10596389;28;20529;-80
2022/12/14 06:03:16;;;;;;;2.10;1.52;;;;;;;-7.44;89.92;99535.91;10611695;28;20040;-81
2022/12/14 06:08:18;;;;;;;1.65;1.48;;;;;;;-7.37;90.60;99518.97;10608425;28;20043;-82
2022/12/14 06:13:21;;;;;;;2.13;0.93;;;;;;;-7.35;89.71;99514.25;10593870;28;20043;-80
2022/12/14 06:18:23;;;;;;;2.95;1.58;;;;;;;-7.32;89.87;99524.53;10611390;28;20027;-80
2022/12/14 06:23:26;;;;;;;1.42;1.15;;;;;;;-7.26;89.72;99546.94;10608201;28;20524;-80
2022/12/14 06:28:29;;;;;;;2.13;1.00;;;;;;;-7.21;89.61;99536.50;10593135;27;20055;-80
2022/12/14 06:33:33;;;;;;;2.20;1.02;;;;;;;-7.20;89.76;99538.16;10595292;28;20054;-81
2022/12/14 06:38:36;;;;;;;2.33;1.50;;;;;;;-7.19;89.59;99545.13;10614103;28;20050;-82
2022/12/14 06:43:38;;;;;;;2.55;1.90;;;;;;;-7.15;89.70;99562.38;10605851;28;20062;-82
2022/12/14 06:48:42;;;;;;;3.40;1.77;;;;;;;-7.14;89.10;99550.69;10567214;28;20043;-81
2022/12/14 06:53:44;;;;;;;3.22;1.23;;;;;;;-7.09;88.90;99558.97;10624604;27;20043;-80
2022/12/14 06:58:46;;;;;;;4.70;1.58;;;;;;;-7.09;88.68;99563.47;10625891;27;20181;-82
2022/12/14 07:03:54;;;;;;;3.88;0.98;;;;;;;-7.09;89.12;99574.13;10625287;27;20425;-83
2022/12/14 07:08:57;;;;;;;1.77;1.25;;;;;;;-7.05;88.21;99564.72;10628406;27;20494;-81
2022/12/14 07:14:01;;;;;;;2.40;0.82;;;;;;;-7.07;87.98;99577.41;10558197;28;20051;-82
2022/12/14 07:19:04;;;;;;;1.30;1.20;;;;;;;-7.01;87.75;99573.97;10586569;27;20039;-82
2022/12/14 07:24:06;;;;;;;1.52;0.98;;;;;;;-7.00;88.04;99584.44;10557666;28;20419;-81
2022/12/14 07:29:10;;;;;;;1.42;0.90;;;;;;;-6.94;87.81;99579.34;10596016;28;20054;-80
2022/12/14 07:34:13;;;;;;;1.70;1.60;;;;;;;-6.91;87.99;99571.81;10616791;27;20039;-82
2022/12/14 07:39:15;;;;;;;4.30;1.98;;;;;;;-6.87;87.08;99580.22;10603266;28;20402;-82
2022/12/14 07:44:18;;;;;;;2.83;1.38;;;;;;;-6.84;86.94;99579.84;10599949;28;20039;-81
2022/12/14 07:49:20;;;;;;;2.20;1.27;;;;;;;-6.82;87.14;99575.94;10617250;28;20052;-81
2022/12/14 07:54:23;;;;;;;3.67;1.40;;;;;;;-6.74;87.57;99586.50;10618005;28;20035;-82
2022/12/14 07:59:25;;;;;;;1.60;1.40;;;;;;;-6.64;87.83;99580.78;10600265;28;20032;-81
2022/12/14 08:04:28;;;;;;;2.38;1.67;;;;;;;-6.54;87.23;99577.78;10615907;27;20413;-81
2022/12/14 08:09:30;;;;;;;3.75;2.03;;;;;;;-6.57;87.17;99579.00;10600919;27;20035;-82
2022/12/14 08:14:32;;;;;;;2.63;1.50;;;;;;;-6.46;86.90;99585.59;10617379;28;20501;-82
2022/12/14 08:19:35;;;;;;;8.55;1.73;;;;;;;-6.43;86.29;99583.38;10617092;28;20043;-81
2022/12/14 08:24:37;;;;;;;3.33;1.00;;;;;;;-6.39;86.02;99589.16;10563096;27;20043;-82
2022/12/14 08:29:39;;;;;;;1.83;1.50;;;;;;;-6.42;85.23;99587.72;10618113;27;20549;-81
2022/12/14 08:34:41;;;;;;;4.47;1.70;;;;;;;-6.49;85.40;99597.50;10598161;28;20051;-81
2022/12/14 08:39:43;;;;;;;3.47;1.73;;;;;;;-6.50;85.62;99584.38;10613892;27;20066;-82
2022/12/14 08:44:46;;;;;;;1.98;1.63;;;;;;;-6.46;85.88;99580.28;10596772;28;20036;-82
2022/12/14 08:49:48;;;;;;;1.70;1.42;;;;;;;-6.43;85.83;99586.03;10615041;27;20506;-83
2022/12/14 08:54:50;;;;;;;1.48;1.20;;;;;;;-6.40;86.10;99580.31;10595779;27;20063;-84
2022/12/14 08:59:52;;;;;;;4.13;1.50;;;;;;;-6.34;85.70;99575.22;10614104;28;20051;-83
2022/12/14 09:04:54;;;;;;;1.60;1.27;;;;;;;-6.42;85.60;99576.19;10602067;28;20039;-82
2022/12/14 09:09:56;;;;;;;1.60;0.80;;;;;;;-6.41;85.79;99561.84;10622088;28;20209;-83
2022/12/14 09:14:59;;;;;;;3.30;1.88;;;;;;;-6.46;85.70;99559.75;10625656;27;20040;-83
2022/12/14 09:20:02;;;;;;;2.80;1.45;;;;;;;-6.45;86.25;99564.06;10615591;27;20050;-81
2022/12/14 09:25:10;;;;;;;1.77;1.13;;;;;;;-6.44;86.66;99549.69;10649433;27;20032;-81
2022/12/14 09:30:12;;;;;;;3.95;1.40;;;;;;;-6.37;86.96;99557.75;10618063;27;20499;-82
2022/12/14 09:35:15;;;;;;;1.58;1.00;;;;;;;-6.44;86.69;99549.69;10621066;27;20059;-83
2022/12/14 09:40:17;;;;;;;1.70;1.13;;;;;;;-6.34;87.48;99556.53;10618093;27;20482;-82
2022/12/14 09:45:29;;;;;;;1.98;1.45;;;;;;;-6.34;87.80;99551.19;10622020;27;20043;-81
2022/12/14 09:50:32;;;;;;;1.80;1.42;;;;;;;-6.35;87.83;99550.38;10603884;28;20178;-81
2022/12/14 09:55:37;;;;;;;1.88;1.35;;;;;;;-6.30;88.16;99552.44;10619871;27;20047;-82
2022/12/14 10:00:45;;;;;;;3.58;1.58;;;;;;;-6.20;88.43;99543.03;10604665;27;20051;-81
2022/12/14 10:06:00;;;;;;;3.25;1.40;;;;;;;-6.13;88.02;99559.06;10625946;27;20039;-80
2022/12/14 10:11:06;;;;;;;5.78;2.08;;;;;;;-6.11;87.49;99557.03;10591788;28;20515;-81
2022/12/14 10:16:48;;;;;;;3.38;1.45;;;;;;;-6.11;87.67;99551.69;10609685;27;20395;-81
2022/12/14 10:21:54;;;;;;;4.63;1.80;;;;;;;-6.07;87.18;99560.97;10629927;27;20048;-82
2022/12/14 10:26:56;;;;;;;2.38;2.00;;;;;;;-6.03;87.35;99567.53;10599335;28;20046;-82
2022/12/14 10:32:21;;;;;;;3.70;1.80;;;;;;;-6.05;87.23;99563.44;10608026;28;20040;-81
2022/12/14 10:37:25;;;;;;;3.50;1.35;;;;;;;-6.02;87.43;99558.50;10599617;27;20055;-81
2022/12/14 10:42:49;;;;;;;2.65;1.42;;;;;;;-6.00;87.27;99558.31;10651411;28;20073;-81
2022/12/14 10:48:05;;;;;;;2.97;1.55;;;;;;;-5.95;87.16;99558.53;10602959;28;20038;-81
2022/12/14 10:53:13;;;;;;;1.30;1.20;;;;;;;-5.88;87.32;99554.81;10603436;28;20529;-83
2022/12/14 10:58:16;;;;;;;2.63;1.50;;;;;;;-5.82;87.22;99561.19;10628285;28;20047;-82
2022/12/14 11:03:18;;;;;;;3.50;1.83;;;;;;;-5.73;87.70;99565.31;10620866;28;20032;-82
2022/12/14 11:08:44;;;;;;;1.40;1.30;;;;;;;-5.80;87.56;99567.97;10622931;28;20039;-83
2022/12/14 11:13:48;;;;;;;3.80;1.65;;;;;;;-5.74;87.99;99584.22;10630183;28;20509;-83
2022/12/14 11:18:58;;;;;;;2.22;1.60;;;;;;;-5.66;87.94;99578.72;10644184;28;20091;-82
2022/12/14 11:24:01;;;;;;;4.22;2.30;;;;;;;-5.64;88.80;99576.66;10578850;28;20071;-80
2022/12/14 11:29:06;;;;;;;4.75;1.98;;;;;;;-5.63;88.64;99570.28;10637922;28;20031;-80
2022/12/14 11:34:38;;;;;;;1.52;1.30;;;;;;;-5.63;88.74;99578.31;10612612;28;20047;-80
2022/12/14 11:39:41;;;;;;;3.33;1.75;;;;;;;-5.59;89.41;99571.53;10615838;27;20049;-81
2022/12/14 11:44:45;;;;;;;2.65;2.13;;;;;;;-5.52;89.45;99575.06;10600177;27;20049;-80
2022/12/14 11:49:53;;;;;;;2.80;1.88;;;;;;;-5.49;89.63;99588.00;10604314;27;20050;-80
2022/12/14 11:54:55;;;;;;;1.50;1.40;;;;;;;-5.50;89.67;99583.69;10602850;27;20047;-79
2022/12/14 12:00:03;;;;;;;3.80;1.80;;;;;;;-5.48;89.72;99586.97;10617943;27;20683;-79
2022/12/14 12:05:10;;;;;;;1.65;1.33;;;;;;;-5.47;90.02;99596.63;10588514;28;20035;-79
2022/12/14 12:10:14;;;;;;;1.73;1.35;;;;;;;-5.54;90.18;99601.16;10621669;28;20032;-80
2022/12/14 12:15:21;;;;;;;1.05;1.05;;;;;;;-5.58;89.98;99590.03;10639411;27;20497;-80
2022/12/14 12:20:58;;;;;;;2.13;1.45;;;;;;;-5.49;89.87;99585.31;10609178;27;20032;-79
2022/12/14 12:26:05;;;;;;;3.38;1.88;;;;;;;-5.54;90.01;99585.13;10606096;27;20051;-80
2022/12/14 12:31:12;;;;;;;2.28;1.85;;;;;;;-5.56;90.37;99587.97;10642711;27;20039;-78
2022/12/14 12:36:19;;;;;;;2.30;1.17;;;;;;;-5.56;90.12;99601.34;10622073;27;20054;-77
2022/12/14 12:41:51;;;;;;;3.78;1.65;;;;;;;-5.54;90.59;99598.47;10628199;27;20414;-79
2022/12/14 12:47:27;;;;;;;1.85;1.40;;;;;;;-5.42;90.75;99599.50;10589202;27;20056;-80
2022/12/14 12:52:37;;;;;;;1.73;1.63;;;;;;;-5.43;90.96;99597.88;10608286;27;20052;-80
2022/12/14 12:57:43;;;;;;;1.60;1.50;;;;;;;-5.41;90.92;99595.00;10595823;27;20036;-81
2022/12/14 13:03:04;;;;;;;2.10;1.75;;;;;;;-5.40;90.97;99596.63;10585385;28;20048;-81
2022/12/14 13:08:13;;;;;;;2.30;1.42;;;;;;;-5.47;90.45;99599.31;10607731;27;20533;-80
2022/12/14 13:13:28;;;;;;;3.05;1.95;;;;;;;-5.48;90.88;99608.34;10619056;27;20047;-79
2022/12/14 13:18:39;;;;;;;1.42;1.33;;;;;;;-5.50;91.20;99607.75;10613604;27;20040;-80
2022/12/14 13:23:46;;;;;;;3.40;1.63;;;;;;;-5.50;90.97;99602.38;10618729;27;20042;-79
2022/12/14 13:29:26;;;;;;;4.72;1.25;;;;;;;-5.52;91.30;99604.44;10579960;27;20528;-81
2022/12/14 13:34:43;;;;;;;5.03;1.88;;;;;;;-5.58;91.21;99597.22;10615695;27;20047;-82
2022/12/14 13:40:02;;;;;;;1.30;1.13;;;;;;;-5.66;91.38;99598.25;10630850;27;20044;-82
2022/12/14 13:45:16;;;;;;;1.33;1.23;;;;;;;-5.74;91.44;99611.75;10632503;27;20032;-82
2022/12/14 13:50:43;;;;;;;1.63;1.50;;;;;;;-5.78;91.88;99616.69;10623918;27;20059;-84
2022/12/14 13:55:50;;;;;;;1.75;1.17;;;;;;;-5.77;91.71;99631.69;10615681;27;20536;-83
2022/12/14 14:01:06;;;;;;;4.73;3.00;;;;;;;-5.75;91.99;99620.81;10653973;27;20031;-83
2022/12/14 14:06:15;;;;;;;3.55;2.10;;;;;;;-5.74;92.35;99643.00;10601144;27;20043;-82
2022/12/14 14:11:24;;;;;;;5.03;2.78;;;;;;;-5.69;92.28;99635.22;10599941;27;20051;-82
2022/12/14 14:16:38;;;;;;;8.45;2.83;;;;;;;-5.65;92.11;99626.59;10609698;27;20055;-81
2022/12/14 14:21:43;;;;;;;4.55;2.55;;;;;;;-5.69;92.08;99614.69;10594851;27;20525;-82
2022/12/14 14:27:08;;;;;;;3.65;2.40;;;;;;;-5.46;91.70;99625.84;10612222;27;20061;-82
2022/12/14 14:32:30;;;;;;;3.92;2.33;;;;;;;-5.03;90.87;99635.34;10601445;28;20047;-81
2022/12/14 14:37:36;;;;;;;2.83;1.58;;;;;;;-4.71;90.05;99631.03;10607055;28;20056;-82
2022/12/14 14:43:01;;;;;;;2.67;1.33;;;;;;;-4.10;88.91;99620.00;10612161;28;20058;-83
2022/12/14 14:48:31;;;;;;;3.00;1.20;;;;;;;-4.08;86.36;99637.53;10607095;28;20039;-83
2022/12/14 14:53:38;;;;;;;1.55;1.45;;;;;;;-4.46;85.21;99639.25;10645120;28;20060;-81
2022/12/14 14:58:41;;;;;;;2.58;1.63;;;;;;;-4.39;85.87;99645.41;10600841;28;20061;-81
2022/12/14 15:03:43;;;;;;;2.58;1.40;;;;;;;-3.87;85.33;99646.31;10586202;28;20043;-81
2022/12/14 15:08:55;;;;;;;1.73;1.23;;;;;;;-3.79;83.54;99640.72;10608557;28;20051;-82
2022/12/14 15:13:59;;;;;;;3.30;1.55;;;;;;;-3.82;82.42;99643.81;10594932;27;20043;-83
2022/12/14 15:19:35;;;;;;;2.35;1.45;;;;;;;-3.90;81.55;99636.84;10616551;28;20505;-82
2022/12/14 15:24:39;;;;;;;1.80;1.17;;;;;;;-4.45;80.81;99644.41;10560482;28;20421;-83
2022/12/14 15:29:44;;;;;;;3.42;1.17;;;;;;;-4.61;81.50;99644.84;10585832;28;20035;-83
2022/12/14 15:34:54;;;;;;;1.70;1.23;;;;;;;-4.53;81.01;99646.47;10600136;28;20067;-82
2022/12/14 15:40:09;;;;;;;1.25;1.15;;;;;;;-4.68;79.73;99636.81;10615607;28;20045;-82
2022/12/14 15:45:14;;;;;;;2.90;1.10;;;;;;;-4.74;79.06;99629.59;10596830;28;20039;-81
2022/12/14 15:50:23;;;;;;;2.28;1.02;;;;;;;-4.75;78.92;99625.28;10615808;28;20035;-82
2022/12/14 15:55:27;;;;;;;1.45;1.13;;;;;;;-4.66;79.28;99629.41;10619113;28;20528;-83
2022/12/14 16:00:29;;;;;;;1.10;1.00;;;;;;;-4.83;77.86;99635.38;10622894;27;20042;-83
2022/12/14 16:05:32;;;;;;;1.45;1.17;;;;;;;-4.87;78.60;99630.41;10622820;27;20036;-82
2022/12/14 16:10:35;;;;;;;2.03;0.75;;;;;;;-5.14;78.42;99644.81;10598542;28;20085;-82
2022/12/14 16:15:37;;;;;;;2.95;1.23;;;;;;;-5.24;78.58;99645.19;10615106;28;20047;-82
2022/12/14 16:20:42;;;;;;;1.15;0.75;;;;;;;-5.29;78.58;99631.63;10592557;28;20043;-82
2022/12/14 16:26:12;;;;;;;1.33;0.90;;;;;;;-5.43;78.79;99640.63;10613245;28;20034;-82
2022/12/14 16:31:20;;;;;;;0.80;0.80;;;;;;;-5.38;79.05;99642.69;10613597;28;20037;-81
2022/12/14 16:36:26;;;;;;;1.30;1.20;;;;;;;-5.50;78.44;99647.84;10590061;28;20051;-82
2022/12/14 16:41:35;;;;;;;1.13;1.02;;;;;;;-5.34;79.50;99647.47;10594189;28;20051;-81
2022/12/14 16:46:37;;;;;;;4.03;1.20;;;;;;;-5.32;79.42;99623.19;10593018;28;20039;-82
2022/12/14 16:51:40;;;;;;;1.38;1.08;;;;;;;-5.33;79.30;99622.38;10592657;28;20048;-81
2022/12/14 16:56:43;;;;;;;0.77;0.77;;;;;;;-5.36;79.80;99620.09;10612863;28;20043;-82
2022/12/14 17:01:46;;;;;;;1.60;0.80;;;;;;;-5.40;80.19;99624.19;10590549;28;20039;-81
2022/12/14 17:06:54;;;;;;;3.70;1.50;;;;;;;-5.35;81.22;99624.44;10575700;28;20418;-81
2022/12/14 17:12:05;;;;;;;1.23;1.13;;;;;;;-5.13;81.07;99606.34;10589759;28;20027;-82
2022/12/14 17:17:07;;;;;;;3.53;1.50;;;;;;;-4.95;80.80;99617.25;10571502;28;20573;-81
2022/12/14 17:22:23;;;;;;;1.08;0.90;;;;;;;-5.10;80.77;99597.09;10553726;28;20046;-81
2022/12/14 17:27:26;;;;;;;1.40;1.13;;;;;;;-5.20;80.89;99576.94;10572316;28;20047;-80
2022/12/14 17:32:29;;;;;;;4.38;1.58;;;;;;;-5.16;81.95;99596.06;10569958;28;20046;-81
2022/12/14 17:37:31;;;;;;;3.65;1.27;;;;;;;-5.03;82.10;99592.53;10614852;27;20055;-83
2022/12/14 17:42:37;;;;;;;2.13;1.10;;;;;;;-4.93;82.89;99592.97;10561781;27;20027;-82
2022/12/14 17:47:39;;;;;;;1.15;1.08;;;;;;;-4.70;83.08;99582.66;10599576;28;20035;-83
2022/12/14 17:52:42;;;;;;;1.90;1.25;;;;;;;-4.60;83.06;99579.56;10570500;28;20418;-82
2022/12/14 17:57:45;;;;;;;2.10;1.65;;;;;;;-4.58;82.93;99572.97;10607149;27;20077;-82
2022/12/14 18:02:47;;;;;;;2.97;1.60;;;;;;;-4.39;82.82;99568.59;10616392;27;20040;-82
2022/12/14 18:07:49;;;;;;;2.38;1.85;;;;;;;-4.55;82.83;99564.50;10613240;27;20047;-81
2022/12/14 18:12:51;;;;;;;3.25;1.70;;;;;;;-4.59;82.81;99554.44;10569071;28;20052;-82
2022/12/14 18:17:53;;;;;;;3.28;2.10;;;;;;;-4.35;83.39;99564.44;10571972;28;20048;-81
2022/12/14 18:22:56;;;;;;;5.13;2.22;;;;;;;-4.32;82.85;99558.69;10593328;28;20039;-82
2022/12/14 18:28:00;;;;;;;4.25;1.88;;;;;;;-4.44;83.30;99554.19;10590684;28;20031;-83
2022/12/14 18:33:02;;;;;;;2.67;1.95;;;;;;;-4.43;83.24;99562.00;10604565;28;20048;-82
2022/12/14 18:38:04;;;;;;;5.72;2.05;;;;;;;-4.30;83.29;99561.16;10606748;28;20415;-82
2022/12/14 18:43:06;;;;;;;4.18;2.20;;;;;;;-4.38;83.33;99567.56;10589662;28;20046;-82
2022/12/14 18:48:09;;;;;;;5.05;2.33;;;;;;;-4.38;83.22;99574.75;10608339;28;20054;-82
2022/12/14 18:53:15;;;;;;;3.75;2.38;;;;;;;-4.39;83.35;99578.47;10613708;28;20032;-81
2022/12/14 18:58:23;;;;;;;5.55;2.75;;;;;;;-4.41;83.56;99573.34;10597791;28;20067;-82
2022/12/14 19:03:28;;;;;;;3.67;2.22;;;;;;;-4.31;83.96;99572.91;10592710;28;20051;-82
2022/12/14 19:08:30;;;;;;;4.43;2.50;;;;;;;-4.20;83.72;99571.41;10618228;27;20032;-82
2022/12/14 19:13:32;;;;;;;3.55;1.90;;;;;;;-4.37;83.62;99555.81;10598023;28;20043;-83
2022/12/14 19:18:35;;;;;;;4.15;2.22;;;;;;;-4.39;83.88;99562.41;10597773;28;20055;-82
2022/12/14 19:23:37;;;;;;;5.38;2.15;;;;;;;-4.29;84.17;99566.31;10610428;28;20052;-82
2022/12/14 19:28:39;;;;;;;5.93;2.85;;;;;;;-4.23;84.45;99559.25;10609072;28;20042;-82
2022/12/14 19:33:42;;;;;;;4.30;2.25;;;;;;;-4.32;84.49;99571.25;10614392;28;20067;-81
2022/12/14 19:38:44;;;;;;;2.58;2.00;;;;;;;-4.40;84.78;99574.16;10615223;28;20043;-81
2022/12/14 19:43:46;;;;;;;3.60;2.15;;;;;;;-4.33;84.43;99561.59;10614453;28;20486;-82
2022/12/14 19:48:49;;;;;;;3.63;2.45;;;;;;;-4.36;84.11;99567.34;10598374;28;20058;-82
2022/12/14 19:53:53;;;;;;;4.20;2.15;;;;;;;-4.46;84.25;99567.78;10587445;27;20051;-84
2022/12/14 19:58:59;;;;;;;7.22;2.47;;;;;;;-4.60;84.73;99560.81;10583716;27;21344;-82
2022/12/14 20:04:05;;;;;;;3.30;2.22;;;;;;;-4.69;85.24;99559.38;10617653;27;20042;-81
2022/12/14 20:09:08;;;;;;;5.78;2.78;;;;;;;-4.65;85.27;99561.44;10597442;28;20043;-82
2022/12/14 20:14:12;;;;;;;3.80;2.25;;;;;;;-4.71;85.70;99558.78;10597273;28;20047;-82
2022/12/14 20:19:15;;;;;;;3.58;2.10;;;;;;;-4.65;85.85;99550.75;10604730;27;20122;-80
2022/12/14 20:24:17;;;;;;;4.40;2.58;;;;;;;-4.77;85.66;99554.25;10584851;27;20486;-82
2022/12/14 20:29:19;;;;;;;4.60;2.45;;;;;;;-4.74;86.51;99557.34;10612908;27;20426;-84
2022/12/14 20:34:21;;;;;;;5.57;2.22;;;;;;;-4.53;85.58;99544.72;10620140;27;20051;-82
2022/12/14 20:39:24;;;;;;;4.68;2.47;;;;;;;-4.55;85.76;99544.94;10606996;27;20058;-82
2022/12/14 20:44:27;;;;;;;4.68;2.53;;;;;;;-4.40;85.67;99550.06;10612051;27;20043;-83
2022/12/14 20:50:07;;;;;;;2.78;2.22;;;;;;;-4.32;85.79;99547.97;10606419;27;20052;-81
2022/12/14 20:55:09;;;;;;;3.75;2.15;;;;;;;-4.18;85.77;99548.72;10601287;27;20047;-82
2022/12/14 21:00:12;;;;;;;5.85;2.70;;;;;;;-4.21;85.59;99562.56;10591632;28;20046;-83
2022/12/14 21:05:14;;;;;;;4.10;2.40;;;;;;;-4.22;85.29;99557.41;10620224;27;20417;-81
2022/12/14 21:10:16;;;;;;;3.92;2.83;;;;;;;-3.97;85.56;99559.16;10586724;27;20042;-84
2022/12/14 21:15:18;;;;;;;5.45;2.97;;;;;;;-4.02;85.32;99545.56;10597687;27;20150;-84
2022/12/14 21:20:22;;;;;;;4.00;2.13;;;;;;;-4.11;85.00;99546.88;10637015;27;20046;-81
2022/12/14 21:25:24;;;;;;;3.55;2.10;;;;;;;-4.02;85.99;99558.97;10579664;27;20056;-83
2022/12/14 21:30:26;;;;;;;4.93;2.55;;;;;;;-3.96;85.78;99551.97;10596919;27;20042;-81
2022/12/14 21:35:28;;;;;;;5.15;2.72;;;;;;;-3.97;85.77;99556.50;10629866;27;20056;-81
2022/12/14 21:45:52;;;;;;;4.43;2.65;;;;;;;-3.71;85.83;99558.19;10588439;27;20043;-83
2022/12/14 22:01:45;;;;;;;3.25;2.03;;;;;;;-3.42;85.34;99558.66;10598476;27;20031;-79
2022/12/14 22:06:51;;;;;;;4.53;2.50;;;;;;;-3.47;85.70;99556.63;10616272;27;20399;-78
2022/12/14 22:11:53;;;;;;;3.13;2.42;;;;;;;-3.43;85.70;99568.56;10598905;28;20039;-82
2022/12/14 22:17:01;;;;;;;5.00;2.17;;;;;;;-3.26;85.48;99559.97;10616668;27;20049;-82
2022/12/14 22:22:05;;;;;;;3.35;2.30;;;;;;;-3.27;85.02;99561.84;10613362;27;20047;-83
2022/12/14 22:27:09;;;;;;;3.50;2.08;;;;;;;-3.27;85.49;99556.47;10634794;27;20039;-83
2022/12/14 22:32:15;;;;;;;2.08;1.88;;;;;;;-3.21;85.22;99568.19;10608914;27;20043;-83
2022/12/14 22:37:21;;;;;;;2.83;2.20;;;;;;;-3.17;85.47;99567.53;10610622;27;20459;-84
2022/12/14 22:42:23;;;;;;;2.25;1.65;;;;;;;-3.19;85.39;99569.59;10628873;27;20058;-83
2022/12/14 22:47:29;;;;;;;2.10;1.73;;;;;;;-3.22;85.17;99558.50;10617264;28;20378;-83
2022/12/14 22:58:04;;;;;;;3.28;2.00;;;;;;;-3.17;85.32;99570.22;10613061;28;20039;-81
2022/12/14 23:03:10;;;;;;;3.08;2.00;;;;;;;-3.12;85.17;99581.13;10635468;28;20039;-77
2022/12/14 23:08:12;;;;;;;3.38;1.55;;;;;;;-3.14;84.76;99572.44;10613896;28;20031;-76
